ADDS METAR Data INFO
IDs: Format: Raw Decoded Include TAF

Data at: 2227 UTC 24 Jun 2018

KDHN 242153Z 31010KT 10SM CLR 34/19 A3001 RMK AO2 SLP156 T03440194
KDHN 242053Z 28008KT 10SM CLR 35/19 A3003 RMK AO2 SLP162 T03500194 56018
KDHN 241953Z 33006KT 10SM SCT050 35/21 A3004 RMK AO2 SLP166 T03500206
KDHN 241853Z 29008KT 10SM FEW047 FEW075 34/20 A3007 RMK AO2 SLP174 T03440200
KDHN 241753Z 30009KT 10SM CLR 34/20 A3008 RMK AO2 SLP180 T03390200 10344 20256 58005
KDHN 241653Z 31009KT 10SM SCT039 SCT055 BKN070 32/21 A3010 RMK AO2 SLP184 T03220211
KDHN 241553Z 27006KT 10SM FEW032 SCT041 SCT050 31/22 A3010 RMK AO2 SLP185 T03110217
KDHN 241453Z 28011KT 10SM SCT027 BKN033 31/22 A3010 RMK AO2 SLP184 T03060222 50002
KDHN 241451Z 29010KT 10SM SCT027 BKN033 31/22 A3010 RMK AO2
KDHN 241428Z 27007KT 10SM BKN025 BKN033 30/23 A3010 RMK AO2 T03000228
KDHN 241353Z 27010G15KT 10SM FEW018 29/23 A3009 RMK AO2 SLP184 T02940228
KDHN 241253Z 26007KT 10SM FEW010 28/24 A3009 RMK AO2 SLP182 T02780239
KDHN 241230Z AUTO 28007KT 10SM SCT006 27/24 A3008 RMK AO2 T02670244
KDHN 241153Z AUTO 30003KT 8SM OVC005 26/24 A3007 RMK AO2 SLP176 T02560244 10261 20244 51017
KDHN 241142Z AUTO 28004KT 8SM BKN005 26/24 A3007 RMK AO2 T02560239
KDHN 241132Z AUTO 26003KT 8SM SCT006 26/24 A3007 RMK AO2 T02560239
KDHN 241053Z AUTO 25003KT 7SM SCT020 25/24 A3006 RMK AO2 SLP173 T02500239
KDHN 240953Z AUTO 22004KT 8SM CLR 25/24 A3004 RMK AO2 SLP166 T02500239
KDHN 240853Z AUTO 23003KT 9SM SCT016 25/24 A3002 RMK AO2 SLP159 T02500239 53003
KDHN 240753Z AUTO 23005KT 10SM CLR 26/24 A3002 RMK AO2 SLP157 T02560239
KDHN 240653Z AUTO 24007KT 10SM FEW014 26/24 A3001 RMK AO2 SLP155 T02560239
KDHN 240553Z AUTO 22007KT 10SM CLR 26/24 A3001 RMK AO2 SLP156 T02610239 10333 20261 51002
KDHN 240453Z AUTO 20009KT 10SM CLR 27/23 A3001 RMK AO2 SLP155 T02670233 403440244
KDHN 240353Z AUTO 21008KT 10SM CLR 27/23 A3002 RMK AO2 SLP158 T02720228
KDHN 240253Z AUTO 20009KT 10SM CLR 28/22 A3001 RMK AO2 SLP154 T02780222 53015
KDHN 240153Z AUTO 20008KT 10SM CLR 29/23 A2998 RMK AO2 SLP145 T02890228
KDHN 240053Z AUTO 21008KT 10SM FEW050 30/23 A2997 RMK AO2 SLP141 T03000228
KDHN 232353Z 00000KT 10SM CLR 33/21 A2996 RMK AO2 SLP139 T03330206 10344 20322 55002
KDHN 232253Z 32006KT 10SM SCT055 33/19 A2996 RMK AO2 SLP138 T03330194
KDHN 232153Z 30006KT 10SM SCT055 33/20 A2996 RMK AO2 SLP139 T03280200
KDHN 232053Z VRB04KT 10SM SCT055 33/20 A2997 RMK AO2 SLP141 T03330200 58018
KDHN 231953Z 29006KT 10SM SCT040 34/19 A2998 RMK AO2 SLP146 T03390194
KDHN 231853Z 27009KT 10SM SCT049 33/20 A3001 RMK AO2 SLP155 T03280200
KDHN 231753Z 28012G17KT 10SM SCT047 33/20 A3002 RMK AO2 SLP159 T03280200 10333 20256 58005
KDHN 231653Z 31010KT 10SM SCT041 BKN050 32/21 A3004 RMK AO2 SLP165 T03170211
KDHN 231553Z 28015G20KT 10SM SCT029 31/20 A3005 RMK AO2 SLP167 T03110200
KDHN 231453Z 26012G20KT 10SM FEW029 BKN039 30/22 A3004 RMK AO2 SLP165 T03000217 51014
KDHN 231421Z 26010G16KT 10SM FEW025 BKN030 BKN040 30/22 A3003 RMK AO2 T03000222
KDHN 231413Z 27012KT 10SM SCT023 BKN029 BKN036 29/22 A3003 RMK AO2 T02940222
KDHN 231400Z 27014G19KT 10SM FEW020 SCT026 SCT034 29/22 A3002 RMK AO2 T02940222
KDHN 231353Z 26013KT 10SM SCT020 BKN025 BKN032 28/22 A3002 RMK AO2 SLP159 T02830222
KDHN 231253Z 25014KT 10SM FEW012 FEW032 28/23 A3001 RMK AO2 SLP157 T02780228
KDHN 231153Z AUTO 24007KT 10SM CLR 26/23 A2999 RMK AO2 SLP150 T02560233 10256 20244 53015
KDHN 231053Z AUTO 23006KT 9SM FEW018 FEW028 25/23 A2998 RMK AO2 SLP144 T02500233